sensor_id;sensor_type;location;lat;lon;timestamp;temperature;humidity
16172;DHT22;8192;53.596;10.166;2023-03-21T00:00:53;6.90;99.90
16172;DHT22;8192;53.596;10.166;2023-03-21T00:03:20;6.90;99.90
16172;DHT22;8192;53.596;10.166;2023-03-21T00:05:48;6.90;99.90
16172;DHT22;8192;53.596;10.166;2023-03-21T00:08:18;6.90;99.90
16172;DHT22;8192;53.596;10.166;2023-03-21T00:10:45;6.90;99.90
16172;DHT22;8192;53.596;10.166;2023-03-21T00:13:14;6.90;99.90
16172;DHT22;8192;53.596;10.166;2023-03-21T00:15:43;6.90;99.90
16172;DHT22;8192;53.596;10.166;2023-03-21T00:18:19;6.90;99.90
16172;DHT22;8192;53.596;10.166;2023-03-21T00:20:55;6.90;99.90
16172;DHT22;8192;53.596;10.166;2023-03-21T00:23:23;6.90;99.90
16172;DHT22;8192;53.596;10.166;2023-03-21T00:25:50;6.90;99.90
16172;DHT22;8192;53.596;10.166;2023-03-21T00:28:19;6.90;99.90
16172;DHT22;8192;53.596;10.166;2023-03-21T00:30:45;6.90;99.90
16172;DHT22;8192;53.596;10.166;2023-03-21T00:33:12;6.90;99.90
16172;DHT22;8192;53.596;10.166;2023-03-21T00:35:41;6.90;99.90
16172;DHT22;8192;53.596;10.166;2023-03-21T00:38:09;6.90;99.90
16172;DHT22;8192;53.596;10.166;2023-03-21T00:40:36;6.90;99.90
16172;DHT22;8192;53.596;10.166;2023-03-21T00:43:03;6.90;99.90
16172;DHT22;8192;53.596;10.166;2023-03-21T00:45:32;6.90;99.90
16172;DHT22;8192;53.596;10.166;2023-03-21T00:47:59;6.90;99.90
16172;DHT22;8192;53.596;10.166;2023-03-21T00:50:26;6.90;99.90
16172;DHT22;8192;53.596;10.166;2023-03-21T00:52:53;6.90;99.90
16172;DHT22;8192;53.596;10.166;2023-03-21T00:55:21;6.90;99.90
16172;DHT22;8192;53.596;10.166;2023-03-21T00:57:47;6.90;99.90
16172;DHT22;8192;53.596;10.166;2023-03-21T01:00:15;6.90;99.90
16172;DHT22;8192;53.596;10.166;2023-03-21T01:02:44;6.90;99.90
16172;DHT22;8192;53.596;10.166;2023-03-21T01:05:22;6.90;99.90
16172;DHT22;8192;53.596;10.166;2023-03-21T01:08:09;6.90;99.90
16172;DHT22;8192;53.596;10.166;2023-03-21T01:10:38;6.90;99.90
16172;DHT22;8192;53.596;10.166;2023-03-21T01:13:07;6.90;99.90
16172;DHT22;8192;53.596;10.166;2023-03-21T01:15:34;6.80;99.90
16172;DHT22;8192;53.596;10.166;2023-03-21T01:18:03;6.90;99.90
16172;DHT22;8192;53.596;10.166;2023-03-21T01:20:30;6.90;99.90
16172;DHT22;8192;53.596;10.166;2023-03-21T01:22:57;6.90;99.90
16172;DHT22;8192;53.596;10.166;2023-03-21T01:25:24;6.90;99.90
16172;DHT22;8192;53.596;10.166;2023-03-21T01:27:51;6.90;99.90
16172;DHT22;8192;53.596;10.166;2023-03-21T01:30:19;6.90;99.90
16172;DHT22;8192;53.596;10.166;2023-03-21T01:32:46;6.90;99.90
16172;DHT22;8192;53.596;10.166;2023-03-21T01:35:15;6.90;99.90
16172;DHT22;8192;53.596;10.166;2023-03-21T01:37:42;6.90;99.90
16172;DHT22;8192;53.596;10.166;2023-03-21T01:40:11;6.90;99.90
16172;DHT22;8192;53.596;10.166;2023-03-21T01:42:41;6.90;99.90
16172;DHT22;8192;53.596;10.166;2023-03-21T01:48:10;6.90;99.90
16172;DHT22;8192;53.596;10.166;2023-03-21T01:50:39;6.90;99.90
16172;DHT22;8192;53.596;10.166;2023-03-21T01:53:08;7.00;99.90
16172;DHT22;8192;53.596;10.166;2023-03-21T01:55:36;7.00;99.90
16172;DHT22;8192;53.596;10.166;2023-03-21T01:58:04;7.00;99.90
16172;DHT22;8192;53.596;10.166;2023-03-21T02:00:32;7.00;99.90
16172;DHT22;8192;53.596;10.166;2023-03-21T02:03:00;7.00;99.90
16172;DHT22;8192;53.596;10.166;2023-03-21T02:05:32;7.00;99.90
16172;DHT22;8192;53.596;10.166;2023-03-21T02:08:05;7.00;99.90
16172;DHT22;8192;53.596;10.166;2023-03-21T02:10:32;7.00;99.90
16172;DHT22;8192;53.596;10.166;2023-03-21T02:13:03;7.00;99.90
16172;DHT22;8192;53.596;10.166;2023-03-21T02:15:35;7.00;99.90
16172;DHT22;8192;53.596;10.166;2023-03-21T02:18:07;7.10;99.90
16172;DHT22;8192;53.596;10.166;2023-03-21T02:24:03;7.00;99.90
16172;DHT22;8192;53.596;10.166;2023-03-21T02:26:49;7.00;99.90
16172;DHT22;8192;53.596;10.166;2023-03-21T02:29:53;7.00;99.90
16172;DHT22;8192;53.596;10.166;2023-03-21T02:32:34;7.00;99.90
16172;DHT22;8192;53.596;10.166;2023-03-21T02:35:20;7.00;99.90
16172;DHT22;8192;53.596;10.166;2023-03-21T02:37:54;7.00;99.90
16172;DHT22;8192;53.596;10.166;2023-03-21T02:40:25;7.00;99.90
16172;DHT22;8192;53.596;10.166;2023-03-21T02:43:03;7.00;99.90
16172;DHT22;8192;53.596;10.166;2023-03-21T02:45:37;7.00;99.90
16172;DHT22;8192;53.596;10.166;2023-03-21T02:48:09;7.00;99.90
16172;DHT22;8192;53.596;10.166;2023-03-21T02:50:40;7.00;99.90
16172;DHT22;8192;53.596;10.166;2023-03-21T02:53:12;7.00;99.90
16172;DHT22;8192;53.596;10.166;2023-03-21T02:55:42;7.00;99.90
16172;DHT22;8192;53.596;10.166;2023-03-21T02:58:12;7.00;99.90
16172;DHT22;8192;53.596;10.166;2023-03-21T03:00:41;7.00;99.90
16172;DHT22;8192;53.596;10.166;2023-03-21T03:03:09;7.10;99.90
16172;DHT22;8192;53.596;10.166;2023-03-21T03:05:42;7.10;99.90
16172;DHT22;8192;53.596;10.166;2023-03-21T03:08:20;7.10;99.90
16172;DHT22;8192;53.596;10.166;2023-03-21T03:10:59;7.10;99.90
16172;DHT22;8192;53.596;10.166;2023-03-21T03:13:37;7.10;99.90
16172;DHT22;8192;53.596;10.166;2023-03-21T03:16:18;7.10;99.90
16172;DHT22;8192;53.596;10.166;2023-03-21T03:18:53;7.00;99.90
16172;DHT22;8192;53.596;10.166;2023-03-21T03:21:26;7.10;99.90
16172;DHT22;8192;53.596;10.166;2023-03-21T03:23:58;7.10;99.90
16172;DHT22;8192;53.596;10.166;2023-03-21T03:26:29;7.10;99.90
16172;DHT22;8192;53.596;10.166;2023-03-21T03:29:01;7.00;99.90
16172;DHT22;8192;53.596;10.166;2023-03-21T03:31:33;7.10;99.90
16172;DHT22;8192;53.596;10.166;2023-03-21T03:34:05;7.10;99.90
16172;DHT22;8192;53.596;10.166;2023-03-21T03:36:39;7.00;99.90
16172;DHT22;8192;53.596;10.166;2023-03-21T03:39:10;7.10;99.90
16172;DHT22;8192;53.596;10.166;2023-03-21T03:41:44;7.10;99.90
16172;DHT22;8192;53.596;10.166;2023-03-21T03:44:11;7.10;99.90
16172;DHT22;8192;53.596;10.166;2023-03-21T03:46:43;7.10;99.90
16172;DHT22;8192;53.596;10.166;2023-03-21T03:49:14;7.10;99.90
16172;DHT22;8192;53.596;10.166;2023-03-21T03:51:48;7.10;99.90
16172;DHT22;8192;53.596;10.166;2023-03-21T03:54:22;7.10;99.90
16172;DHT22;8192;53.596;10.166;2023-03-21T03:56:50;7.10;99.90
16172;DHT22;8192;53.596;10.166;2023-03-21T03:59:17;7.10;99.90
16172;DHT22;8192;53.596;10.166;2023-03-21T04:01:46;7.10;99.90
16172;DHT22;8192;53.596;10.166;2023-03-21T04:04:13;7.00;99.90
16172;DHT22;8192;53.596;10.166;2023-03-21T04:06:41;7.10;99.90
16172;DHT22;8192;53.596;10.166;2023-03-21T04:09:08;7.10;99.90
16172;DHT22;8192;53.596;10.166;2023-03-21T04:11:36;7.10;99.90
16172;DHT22;8192;53.596;10.166;2023-03-21T04:14:03;7.10;99.90
16172;DHT22;8192;53.596;10.166;2023-03-21T04:16:30;7.10;99.90
16172;DHT22;8192;53.596;10.166;2023-03-21T04:18:57;7.10;99.90
16172;DHT22;8192;53.596;10.166;2023-03-21T04:21:24;7.10;99.90
16172;DHT22;8192;53.596;10.166;2023-03-21T04:23:52;7.10;99.90
16172;DHT22;8192;53.596;10.166;2023-03-21T04:26:19;7.20;99.90
16172;DHT22;8192;53.596;10.166;2023-03-21T04:28:48;7.20;99.90
16172;DHT22;8192;53.596;10.166;2023-03-21T04:31:15;7.20;99.90
16172;DHT22;8192;53.596;10.166;2023-03-21T04:33:42;7.20;99.90
16172;DHT22;8192;53.596;10.166;2023-03-21T04:36:12;7.20;99.90
16172;DHT22;8192;53.596;10.166;2023-03-21T04:38:50;7.20;99.90
16172;DHT22;8192;53.596;10.166;2023-03-21T04:41:17;7.20;99.90
16172;DHT22;8192;53.596;10.166;2023-03-21T04:43:45;7.20;99.90
16172;DHT22;8192;53.596;10.166;2023-03-21T04:46:14;7.10;99.90
16172;DHT22;8192;53.596;10.166;2023-03-21T04:48:41;7.10;99.90
16172;DHT22;8192;53.596;10.166;2023-03-21T04:51:08;7.20;99.90
16172;DHT22;8192;53.596;10.166;2023-03-21T04:53:35;7.20;99.90
16172;DHT22;8192;53.596;10.166;2023-03-21T04:56:04;7.20;99.90
16172;DHT22;8192;53.596;10.166;2023-03-21T04:58:31;7.20;99.90
16172;DHT22;8192;53.596;10.166;2023-03-21T05:00:58;7.20;99.90
16172;DHT22;8192;53.596;10.166;2023-03-21T05:03:28;7.20;99.90
16172;DHT22;8192;53.596;10.166;2023-03-21T05:05:58;7.20;99.90
16172;DHT22;8192;53.596;10.166;2023-03-21T05:08:26;7.20;99.90
16172;DHT22;8192;53.596;10.166;2023-03-21T05:10:53;7.20;99.90
16172;DHT22;8192;53.596;10.166;2023-03-21T05:13:20;7.20;99.90
16172;DHT22;8192;53.596;10.166;2023-03-21T05:15:47;7.20;99.90
16172;DHT22;8192;53.596;10.166;2023-03-21T05:18:14;7.20;99.90
16172;DHT22;8192;53.596;10.166;2023-03-21T05:20:51;7.20;99.90
16172;DHT22;8192;53.596;10.166;2023-03-21T05:23:20;7.20;99.90
16172;DHT22;8192;53.596;10.166;2023-03-21T05:25:47;7.20;99.90
16172;DHT22;8192;53.596;10.166;2023-03-21T05:28:14;7.20;99.90
16172;DHT22;8192;53.596;10.166;2023-03-21T05:30:43;7.30;99.90
16172;DHT22;8192;53.596;10.166;2023-03-21T05:33:10;7.30;99.90
16172;DHT22;8192;53.596;10.166;2023-03-21T05:35:38;7.30;99.90
16172;DHT22;8192;53.596;10.166;2023-03-21T05:38:06;7.30;99.90
16172;DHT22;8192;53.596;10.166;2023-03-21T05:40:33;7.30;99.90
16172;DHT22;8192;53.596;10.166;2023-03-21T05:43:01;7.30;99.90
16172;DHT22;8192;53.596;10.166;2023-03-21T05:45:29;7.30;99.90
16172;DHT22;8192;53.596;10.166;2023-03-21T05:47:56;7.40;99.90
16172;DHT22;8192;53.596;10.166;2023-03-21T05:50:23;7.40;99.90
16172;DHT22;8192;53.596;10.166;2023-03-21T05:52:50;7.40;99.90
16172;DHT22;8192;53.596;10.166;2023-03-21T05:55:18;7.40;99.90
16172;DHT22;8192;53.596;10.166;2023-03-21T05:57:45;7.40;99.90
16172;DHT22;8192;53.596;10.166;2023-03-21T06:00:13;7.50;99.90
16172;DHT22;8192;53.596;10.166;2023-03-21T06:02:41;7.50;99.90
16172;DHT22;8192;53.596;10.166;2023-03-21T06:05:08;7.50;99.90
16172;DHT22;8192;53.596;10.166;2023-03-21T06:07:36;7.50;99.90
16172;DHT22;8192;53.596;10.166;2023-03-21T06:10:05;7.60;99.90
16172;DHT22;8192;53.596;10.166;2023-03-21T06:12:34;7.50;99.90
16172;DHT22;8192;53.596;10.166;2023-03-21T06:15:01;7.60;99.90
16172;DHT22;8192;53.596;10.166;2023-03-21T06:17:29;7.60;99.90
16172;DHT22;8192;53.596;10.166;2023-03-21T06:19:57;7.70;99.90
16172;DHT22;8192;53.596;10.166;2023-03-21T06:22:25;7.70;99.90
16172;DHT22;8192;53.596;10.166;2023-03-21T06:24:52;7.70;99.90
16172;DHT22;8192;53.596;10.166;2023-03-21T06:27:19;7.70;99.90
16172;DHT22;8192;53.596;10.166;2023-03-21T06:29:48;7.80;99.90
16172;DHT22;8192;53.596;10.166;2023-03-21T06:32:14;7.80;99.90
16172;DHT22;8192;53.596;10.166;2023-03-21T06:34:42;7.90;99.90
16172;DHT22;8192;53.596;10.166;2023-03-21T06:37:09;7.90;99.90
16172;DHT22;8192;53.596;10.166;2023-03-21T06:39:36;7.90;99.90
16172;DHT22;8192;53.596;10.166;2023-03-21T06:42:03;7.90;99.90
16172;DHT22;8192;53.596;10.166;2023-03-21T06:44:30;7.90;99.90
16172;DHT22;8192;53.596;10.166;2023-03-21T06:46:58;7.90;99.90
16172;DHT22;8192;53.596;10.166;2023-03-21T06:49:27;7.90;99.90
16172;DHT22;8192;53.596;10.166;2023-03-21T06:51:54;7.90;99.90
16172;DHT22;8192;53.596;10.166;2023-03-21T06:54:21;7.90;99.90
16172;DHT22;8192;53.596;10.166;2023-03-21T06:56:48;7.90;99.90
16172;DHT22;8192;53.596;10.166;2023-03-21T06:59:15;7.80;99.90
16172;DHT22;8192;53.596;10.166;2023-03-21T07:01:43;7.80;99.90
16172;DHT22;8192;53.596;10.166;2023-03-21T07:04:11;7.90;99.90
16172;DHT22;8192;53.596;10.166;2023-03-21T07:06:38;7.90;99.90
16172;DHT22;8192;53.596;10.166;2023-03-21T07:09:05;8.00;99.90
16172;DHT22;8192;53.596;10.166;2023-03-21T07:11:32;8.00;99.90
16172;DHT22;8192;53.596;10.166;2023-03-21T07:14:00;8.10;99.90
16172;DHT22;8192;53.596;10.166;2023-03-21T07:16:28;8.20;99.90
16172;DHT22;8192;53.596;10.166;2023-03-21T07:18:55;8.30;99.90
16172;DHT22;8192;53.596;10.166;2023-03-21T07:21:23;8.30;99.90
16172;DHT22;8192;53.596;10.166;2023-03-21T07:23:50;8.30;99.90
16172;DHT22;8192;53.596;10.166;2023-03-21T07:26:18;8.30;99.90
16172;DHT22;8192;53.596;10.166;2023-03-21T07:28:45;8.20;99.90
16172;DHT22;8192;53.596;10.166;2023-03-21T07:31:18;8.20;99.90
16172;DHT22;8192;53.596;10.166;2023-03-21T07:33:45;8.30;99.90
16172;DHT22;8192;53.596;10.166;2023-03-21T07:36:13;8.40;99.90
16172;DHT22;8192;53.596;10.166;2023-03-21T07:38:42;8.30;99.90
16172;DHT22;8192;53.596;10.166;2023-03-21T07:41:10;8.30;99.90
16172;DHT22;8192;53.596;10.166;2023-03-21T07:43:37;8.30;99.90
16172;DHT22;8192;53.596;10.166;2023-03-21T07:46:04;8.40;99.90
16172;DHT22;8192;53.596;10.166;2023-03-21T07:48:32;8.40;99.90
16172;DHT22;8192;53.596;10.166;2023-03-21T07:51:01;8.50;99.90
16172;DHT22;8192;53.596;10.166;2023-03-21T07:53:28;8.50;99.90
16172;DHT22;8192;53.596;10.166;2023-03-21T07:55:56;8.50;99.90
16172;DHT22;8192;53.596;10.166;2023-03-21T07:58:24;8.50;99.90
16172;DHT22;8192;53.596;10.166;2023-03-21T08:00:52;8.50;99.90
16172;DHT22;8192;53.596;10.166;2023-03-21T08:03:21;8.50;99.90
16172;DHT22;8192;53.596;10.166;2023-03-21T08:05:51;8.50;99.90
16172;DHT22;8192;53.596;10.166;2023-03-21T08:08:18;8.50;99.90
16172;DHT22;8192;53.596;10.166;2023-03-21T08:10:45;8.50;99.90
16172;DHT22;8192;53.596;10.166;2023-03-21T08:13:14;8.50;99.90
16172;DHT22;8192;53.596;10.166;2023-03-21T08:15:40;8.50;99.90
16172;DHT22;8192;53.596;10.166;2023-03-21T08:18:10;8.50;99.90
16172;DHT22;8192;53.596;10.166;2023-03-21T08:20:38;8.50;99.90
16172;DHT22;8192;53.596;10.166;2023-03-21T08:23:12;8.50;99.90
16172;DHT22;8192;53.596;10.166;2023-03-21T08:25:39;8.50;99.90
16172;DHT22;8192;53.596;10.166;2023-03-21T08:28:06;8.50;99.90
16172;DHT22;8192;53.596;10.166;2023-03-21T08:30:37;8.50;99.90
16172;DHT22;8192;53.596;10.166;2023-03-21T08:33:04;8.50;99.90
16172;DHT22;8192;53.596;10.166;2023-03-21T08:35:30;8.60;99.90
16172;DHT22;8192;53.596;10.166;2023-03-21T08:37:58;8.60;99.90
16172;DHT22;8192;53.596;10.166;2023-03-21T08:40:25;8.60;99.90
16172;DHT22;8192;53.596;10.166;2023-03-21T08:42:53;8.70;99.90
16172;DHT22;8192;53.596;10.166;2023-03-21T08:45:21;8.70;99.90
16172;DHT22;8192;53.596;10.166;2023-03-21T08:47:49;8.80;99.90
16172;DHT22;8192;53.596;10.166;2023-03-21T08:50:18;8.90;99.90
16172;DHT22;8192;53.596;10.166;2023-03-21T08:52:45;8.90;99.90
16172;DHT22;8192;53.596;10.166;2023-03-21T08:55:14;8.90;99.90
16172;DHT22;8192;53.596;10.166;2023-03-21T08:57:41;9.00;99.90
16172;DHT22;8192;53.596;10.166;2023-03-21T09:00:11;9.00;99.90
16172;DHT22;8192;53.596;10.166;2023-03-21T09:02:40;9.10;99.90
16172;DHT22;8192;53.596;10.166;2023-03-21T09:05:09;9.10;99.90
16172;DHT22;8192;53.596;10.166;2023-03-21T09:07:38;9.10;99.90
16172;DHT22;8192;53.596;10.166;2023-03-21T09:10:08;9.10;99.90
16172;DHT22;8192;53.596;10.166;2023-03-21T09:12:36;9.20;99.90
16172;DHT22;8192;53.596;10.166;2023-03-21T09:15:10;9.30;99.90
16172;DHT22;8192;53.596;10.166;2023-03-21T09:17:38;9.20;99.90
16172;DHT22;8192;53.596;10.166;2023-03-21T09:20:10;9.10;99.90
16172;DHT22;8192;53.596;10.166;2023-03-21T09:22:44;9.20;99.90
16172;DHT22;8192;53.596;10.166;2023-03-21T09:25:11;9.20;99.90
16172;DHT22;8192;53.596;10.166;2023-03-21T09:27:38;9.20;99.90
16172;DHT22;8192;53.596;10.166;2023-03-21T09:30:07;9.10;99.90
16172;DHT22;8192;53.596;10.166;2023-03-21T09:32:34;9.10;99.90
16172;DHT22;8192;53.596;10.166;2023-03-21T09:35:02;9.10;99.90
16172;DHT22;8192;53.596;10.166;2023-03-21T09:37:34;9.10;99.90
16172;DHT22;8192;53.596;10.166;2023-03-21T09:40:13;9.10;99.90
16172;DHT22;8192;53.596;10.166;2023-03-21T09:42:47;9.20;99.90
16172;DHT22;8192;53.596;10.166;2023-03-21T09:45:20;9.20;99.90
16172;DHT22;8192;53.596;10.166;2023-03-21T09:47:50;9.20;99.90
16172;DHT22;8192;53.596;10.166;2023-03-21T09:50:20;9.20;99.90
16172;DHT22;8192;53.596;10.166;2023-03-21T09:52:56;9.20;99.90
16172;DHT22;8192;53.596;10.166;2023-03-21T09:55:26;9.30;99.90
16172;DHT22;8192;53.596;10.166;2023-03-21T09:58:01;9.40;99.90
16172;DHT22;8192;53.596;10.166;2023-03-21T10:00:34;9.50;99.90
16172;DHT22;8192;53.596;10.166;2023-03-21T10:03:05;9.60;99.90
16172;DHT22;8192;53.596;10.166;2023-03-21T10:05:35;9.60;99.90
16172;DHT22;8192;53.596;10.166;2023-03-21T10:08:08;9.80;99.90
16172;DHT22;8192;53.596;10.166;2023-03-21T10:10:45;9.80;99.90
16172;DHT22;8192;53.596;10.166;2023-03-21T10:13:15;9.90;99.90
16172;DHT22;8192;53.596;10.166;2023-03-21T10:15:43;9.80;99.90
16172;DHT22;8192;53.596;10.166;2023-03-21T10:18:15;9.90;99.90
16172;DHT22;8192;53.596;10.166;2023-03-21T10:20:44;9.90;99.90
16172;DHT22;8192;53.596;10.166;2023-03-21T10:23:14;9.70;99.90
16172;DHT22;8192;53.596;10.166;2023-03-21T10:25:44;9.80;99.90
16172;DHT22;8192;53.596;10.166;2023-03-21T10:28:15;9.90;99.90
16172;DHT22;8192;53.596;10.166;2023-03-21T10:30:45;9.90;99.90
16172;DHT22;8192;53.596;10.166;2023-03-21T10:33:15;10.00;99.90
16172;DHT22;8192;53.596;10.166;2023-03-21T10:35:49;10.00;99.90
16172;DHT22;8192;53.596;10.166;2023-03-21T10:38:22;10.00;99.90
16172;DHT22;8192;53.596;10.166;2023-03-21T10:40:50;10.00;99.90
16172;DHT22;8192;53.596;10.166;2023-03-21T10:43:32;10.10;99.90
16172;DHT22;8192;53.596;10.166;2023-03-21T10:46:06;10.10;99.90
16172;DHT22;8192;53.596;10.166;2023-03-21T10:48:35;9.90;99.90
16172;DHT22;8192;53.596;10.166;2023-03-21T10:51:04;9.90;99.90
16172;DHT22;8192;53.596;10.166;2023-03-21T10:53:39;9.80;99.90
16172;DHT22;8192;53.596;10.166;2023-03-21T10:56:08;9.80;99.90
16172;DHT22;8192;53.596;10.166;2023-03-21T10:58:40;9.80;99.90
16172;DHT22;8192;53.596;10.166;2023-03-21T11:01:11;9.80;99.90
16172;DHT22;8192;53.596;10.166;2023-03-21T11:03:41;9.80;99.90
16172;DHT22;8192;53.596;10.166;2023-03-21T11:06:14;9.90;99.90
16172;DHT22;8192;53.596;10.166;2023-03-21T11:08:46;9.90;99.90
16172;DHT22;8192;53.596;10.166;2023-03-21T11:11:20;10.00;99.90
16172;DHT22;8192;53.596;10.166;2023-03-21T11:13:56;10.00;99.90
16172;DHT22;8192;53.596;10.166;2023-03-21T11:16:25;10.00;99.90
16172;DHT22;8192;53.596;10.166;2023-03-21T11:18:59;9.90;99.90
16172;DHT22;8192;53.596;10.166;2023-03-21T11:21:26;9.90;99.90
16172;DHT22;8192;53.596;10.166;2023-03-21T11:23:56;9.90;99.90
16172;DHT22;8192;53.596;10.166;2023-03-21T11:26:28;10.00;99.90
16172;DHT22;8192;53.596;10.166;2023-03-21T11:28:57;10.00;99.90
16172;DHT22;8192;53.596;10.166;2023-03-21T11:31:36;10.00;99.90
16172;DHT22;8192;53.596;10.166;2023-03-21T11:34:06;10.00;99.90
16172;DHT22;8192;53.596;10.166;2023-03-21T11:36:35;10.00;99.90
16172;DHT22;8192;53.596;10.166;2023-03-21T11:39:27;10.00;99.90
16172;DHT22;8192;53.596;10.166;2023-03-21T11:41:55;10.00;99.90
16172;DHT22;8192;53.596;10.166;2023-03-21T11:44:26;9.90;99.90
16172;DHT22;8192;53.596;10.166;2023-03-21T11:46:53;9.90;99.90
16172;DHT22;8192;53.596;10.166;2023-03-21T11:49:21;9.80;99.90
16172;DHT22;8192;53.596;10.166;2023-03-21T11:51:54;9.90;99.90
16172;DHT22;8192;53.596;10.166;2023-03-21T11:54:29;10.00;99.90
16172;DHT22;8192;53.596;10.166;2023-03-21T11:57:04;10.20;99.90
16172;DHT22;8192;53.596;10.166;2023-03-21T11:59:40;10.30;99.90
16172;DHT22;8192;53.596;10.166;2023-03-21T12:02:36;10.20;99.90
16172;DHT22;8192;53.596;10.166;2023-03-21T12:05:12;10.20;99.90
16172;DHT22;8192;53.596;10.166;2023-03-21T12:07:50;10.20;99.90
16172;DHT22;8192;53.596;10.166;2023-03-21T12:10:34;10.10;99.90
16172;DHT22;8192;53.596;10.166;2023-03-21T12:13:31;10.10;99.90
16172;DHT22;8192;53.596;10.166;2023-03-21T12:16:13;10.10;99.90
16172;DHT22;8192;53.596;10.166;2023-03-21T12:18:58;10.00;99.90
16172;DHT22;8192;53.596;10.166;2023-03-21T12:21:31;10.10;99.90
16172;DHT22;8192;53.596;10.166;2023-03-21T12:24:04;10.10;99.90
16172;DHT22;8192;53.596;10.166;2023-03-21T12:26:40;10.30;99.90
16172;DHT22;8192;53.596;10.166;2023-03-21T12:29:23;10.50;99.90
16172;DHT22;8192;53.596;10.166;2023-03-21T12:32:04;10.70;99.90
16172;DHT22;8192;53.596;10.166;2023-03-21T12:35:00;10.60;99.90
16172;DHT22;8192;53.596;10.166;2023-03-21T12:37:35;10.40;99.90
16172;DHT22;8192;53.596;10.166;2023-03-21T12:40:11;10.30;99.90
16172;DHT22;8192;53.596;10.166;2023-03-21T12:42:54;10.30;99.90
16172;DHT22;8192;53.596;10.166;2023-03-21T12:45:28;10.30;99.90
16172;DHT22;8192;53.596;10.166;2023-03-21T12:48:14;10.40;99.90
16172;DHT22;8192;53.596;10.166;2023-03-21T12:50:43;10.30;99.90
16172;DHT22;8192;53.596;10.166;2023-03-21T12:53:29;10.30;99.90
16172;DHT22;8192;53.596;10.166;2023-03-21T12:56:03;10.30;99.90
16172;DHT22;8192;53.596;10.166;2023-03-21T12:58:40;10.20;99.90
16172;DHT22;8192;53.596;10.166;2023-03-21T13:01:11;10.20;99.90
16172;DHT22;8192;53.596;10.166;2023-03-21T13:03:40;10.20;99.90
16172;DHT22;8192;53.596;10.166;2023-03-21T13:06:11;10.10;99.90
16172;DHT22;8192;53.596;10.166;2023-03-21T13:08:42;10.10;99.90
16172;DHT22;8192;53.596;10.166;2023-03-21T13:11:14;10.10;99.90
16172;DHT22;8192;53.596;10.166;2023-03-21T13:13:46;10.20;99.90
16172;DHT22;8192;53.596;10.166;2023-03-21T13:16:19;10.10;99.90
16172;DHT22;8192;53.596;10.166;2023-03-21T13:19:04;10.10;99.90
16172;DHT22;8192;53.596;10.166;2023-03-21T13:21:45;10.00;99.90
16172;DHT22;8192;53.596;10.166;2023-03-21T13:24:23;10.00;99.90
16172;DHT22;8192;53.596;10.166;2023-03-21T13:26:57;10.10;99.90
16172;DHT22;8192;53.596;10.166;2023-03-21T13:29:31;10.10;99.90
16172;DHT22;8192;53.596;10.166;2023-03-21T13:32:08;10.20;99.90
16172;DHT22;8192;53.596;10.166;2023-03-21T13:34:38;10.20;99.90
16172;DHT22;8192;53.596;10.166;2023-03-21T13:37:14;10.20;99.90
16172;DHT22;8192;53.596;10.166;2023-03-21T13:39:44;10.20;99.90
16172;DHT22;8192;53.596;10.166;2023-03-21T13:42:20;10.20;99.90
16172;DHT22;8192;53.596;10.166;2023-03-21T13:44:52;10.20;99.90
16172;DHT22;8192;53.596;10.166;2023-03-21T13:47:37;10.20;99.90
16172;DHT22;8192;53.596;10.166;2023-03-21T13:50:35;10.20;99.90
16172;DHT22;8192;53.596;10.166;2023-03-21T13:53:29;10.20;99.90
16172;DHT22;8192;53.596;10.166;2023-03-21T13:56:22;10.30;99.90
16172;DHT22;8192;53.596;10.166;2023-03-21T13:58:52;10.30;99.90
16172;DHT22;8192;53.596;10.166;2023-03-21T14:01:27;10.30;99.90
16172;DHT22;8192;53.596;10.166;2023-03-21T14:03:59;10.20;99.90
16172;DHT22;8192;53.596;10.166;2023-03-21T14:06:35;10.30;99.90
16172;DHT22;8192;53.596;10.166;2023-03-21T14:09:05;10.40;99.90
16172;DHT22;8192;53.596;10.166;2023-03-21T14:11:33;10.50;99.90
16172;DHT22;8192;53.596;10.166;2023-03-21T14:14:01;10.40;99.90
16172;DHT22;8192;53.596;10.166;2023-03-21T14:16:31;10.40;99.90
16172;DHT22;8192;53.596;10.166;2023-03-21T14:19:01;10.40;99.90
16172;DHT22;8192;53.596;10.166;2023-03-21T14:21:31;10.40;99.90
16172;DHT22;8192;53.596;10.166;2023-03-21T14:24:00;10.40;99.90
16172;DHT22;8192;53.596;10.166;2023-03-21T14:26:29;10.40;99.90
16172;DHT22;8192;53.596;10.166;2023-03-21T14:28:57;10.40;99.90
16172;DHT22;8192;53.596;10.166;2023-03-21T14:31:25;10.40;99.90
16172;DHT22;8192;53.596;10.166;2023-03-21T14:33:56;10.40;99.90
16172;DHT22;8192;53.596;10.166;2023-03-21T14:36:25;10.40;99.90
16172;DHT22;8192;53.596;10.166;2023-03-21T14:38:55;10.30;99.90
16172;DHT22;8192;53.596;10.166;2023-03-21T14:41:25;10.20;99.90
16172;DHT22;8192;53.596;10.166;2023-03-21T14:44:13;10.10;99.90
16172;DHT22;8192;53.596;10.166;2023-03-21T14:46:41;10.10;99.90
16172;DHT22;8192;53.596;10.166;2023-03-21T14:49:12;10.10;99.90
16172;DHT22;8192;53.596;10.166;2023-03-21T14:51:40;10.00;99.90
16172;DHT22;8192;53.596;10.166;2023-03-21T14:54:12;10.00;99.90
16172;DHT22;8192;53.596;10.166;2023-03-21T14:56:44;10.00;99.90
16172;DHT22;8192;53.596;10.166;2023-03-21T14:59:13;9.90;99.90
16172;DHT22;8192;53.596;10.166;2023-03-21T15:01:42;9.90;99.90
16172;DHT22;8192;53.596;10.166;2023-03-21T15:04:14;9.90;99.90
16172;DHT22;8192;53.596;10.166;2023-03-21T15:06:49;9.90;99.90
16172;DHT22;8192;53.596;10.166;2023-03-21T15:09:21;9.90;99.90
16172;DHT22;8192;53.596;10.166;2023-03-21T15:11:50;9.90;99.90
16172;DHT22;8192;53.596;10.166;2023-03-21T15:14:19;9.90;99.90
16172;DHT22;8192;53.596;10.166;2023-03-21T15:16:49;9.90;99.90
16172;DHT22;8192;53.596;10.166;2023-03-21T15:19:23;10.00;99.90
16172;DHT22;8192;53.596;10.166;2023-03-21T15:21:55;9.90;99.90
16172;DHT22;8192;53.596;10.166;2023-03-21T15:24:25;9.90;99.90
16172;DHT22;8192;53.596;10.166;2023-03-21T15:26:57;9.90;99.90
16172;DHT22;8192;53.596;10.166;2023-03-21T15:29:25;9.90;99.90
16172;DHT22;8192;53.596;10.166;2023-03-21T15:31:52;10.00;99.90
16172;DHT22;8192;53.596;10.166;2023-03-21T15:34:23;9.80;99.90
16172;DHT22;8192;53.596;10.166;2023-03-21T15:36:55;9.70;99.90
16172;DHT22;8192;53.596;10.166;2023-03-21T15:39:26;9.70;99.90
16172;DHT22;8192;53.596;10.166;2023-03-21T15:42:02;9.70;99.90
16172;DHT22;8192;53.596;10.166;2023-03-21T15:44:30;9.70;99.90
16172;DHT22;8192;53.596;10.166;2023-03-21T15:46:57;9.70;99.90
16172;DHT22;8192;53.596;10.166;2023-03-21T15:49:27;9.70;99.90
16172;DHT22;8192;53.596;10.166;2023-03-21T15:52:00;9.70;99.90
16172;DHT22;8192;53.596;10.166;2023-03-21T15:54:30;9.70;99.90
16172;DHT22;8192;53.596;10.166;2023-03-21T15:56:59;9.80;99.90
16172;DHT22;8192;53.596;10.166;2023-03-21T15:59:32;9.80;99.90
16172;DHT22;8192;53.596;10.166;2023-03-21T16:02:00;9.80;99.90
16172;DHT22;8192;53.596;10.166;2023-03-21T16:04:30;9.80;99.90
16172;DHT22;8192;53.596;10.166;2023-03-21T16:06:59;9.80;99.90
16172;DHT22;8192;53.596;10.166;2023-03-21T16:09:26;9.80;99.90
16172;DHT22;8192;53.596;10.166;2023-03-21T16:11:55;9.70;99.90